CheckWX is a tool to help pilots better visualize weather data.  It is not intended as a substitute for an official pre-flight weather briefing.

10:29:53 UTC

KDVL METAR
Devils Lake Regional Airport
Devils Lake, North Dakota, USA
Current

34 mins ago

KDVL 280956Z AUTO 15004KT 1 1/4SM -SN BR OVC003 M12/M13 A3010 RMK AO2 SNB07 SLP778 P0000 T11221133 FZRANO
Observed
Jan-28 @ 09:56 UTC
Wind
  • 150° at 4 KTS
Visibility
1 1/4 SM
Flight Rules
LIFR
Conditions
Light Snow, Mist
Cloud Levels
  • Overcast at 300' AGL
Temperature
-12°C / 10°F
Dewpoint
-13°C / 9°F
Humidity
92%
Altimeter
30.1" Hg
Pressure
1019.32 hPa
Current Rain
0.01"
Previous

43 mins ago

KDVL 280947Z AUTO 16005KT 1SM -SN BR OVC003 M12/M13 A3010 RMK AO2 SNB07 P0000 FZRANO
Observed
Jan-28 @ 09:47 UTC
Wind
  • 160° at 5 KTS
Visibility
1 SM
Flight Rules
LIFR
Conditions
Light Snow, Mist
Cloud Levels
  • Overcast at 300' AGL
Temperature
-12°C / 10°F
Dewpoint
-13°C / 9°F
Humidity
92%
Altimeter
30.1" Hg
Pressure
1019.32 hPa
Current Rain
0.01"
Previous

1 hour ago

KDVL 280914Z AUTO 16003KT 3/4SM -SN BR OVC003 M12/M13 A3010 RMK AO2 SNB07 P0000 FZRANO
Observed
Jan-28 @ 09:14 UTC
Wind
  • 160° at 3 KTS
Visibility
3/4 SM
Flight Rules
LIFR
Conditions
Light Snow, Mist
Cloud Levels
  • Overcast at 300' AGL
Temperature
-12°C / 10°F
Dewpoint
-13°C / 9°F
Humidity
92%
Altimeter
30.1" Hg
Pressure
1019.32 hPa
Current Rain
0.01"